createdAt,value
2023-02-06T00:00:15.447Z,78.61
2023-02-06T00:02:45.838Z,78.81
2023-02-06T00:05:16.291Z,79.17
2023-02-06T00:07:46.684Z,79.33
2023-02-06T00:10:17.218Z,79.62
2023-02-06T00:12:47.637Z,79.02
2023-02-06T00:15:20.730Z,78.63
2023-02-06T00:17:54.052Z,78.68
2023-02-06T00:20:24.711Z,78.75
2023-02-06T00:22:55.114Z,79.28
2023-02-06T00:25:25.466Z,79.22
2023-02-06T00:27:55.860Z,78.93
2023-02-06T00:30:30.269Z,78.77
2023-02-06T00:33:00.556Z,78.53
2023-02-06T00:35:31.460Z,78.26
2023-02-06T00:38:02.603Z,78.05
2023-02-06T00:40:32.982Z,78.21
2023-02-06T00:43:03.316Z,77.97
2023-02-06T00:45:36.713Z,77.78
2023-02-06T00:48:09.250Z,78.12
2023-02-06T00:50:40.579Z,77.96
2023-02-06T00:53:11.429Z,77.94
2023-02-06T00:55:41.879Z,77.91
2023-02-06T00:58:12.329Z,77.74
2023-02-06T01:00:48.130Z,77.91
2023-02-06T01:03:18.502Z,78.00
2023-02-06T01:05:49.079Z,78.13
2023-02-06T01:08:19.636Z,77.87
2023-02-06T01:10:50.066Z,77.66
2023-02-06T01:13:20.392Z,77.63
2023-02-06T01:15:54.154Z,77.67
2023-02-06T01:18:24.555Z,77.81
2023-02-06T01:20:54.931Z,77.53
2023-02-06T01:23:26.162Z,77.48
2023-02-06T01:25:56.236Z,77.58
2023-02-06T01:28:27.288Z,77.55
2023-02-06T01:31:00.433Z,77.70
2023-02-06T01:33:30.809Z,78.38
2023-02-06T01:36:01.200Z,78.04
2023-02-06T01:38:33.292Z,77.67
2023-02-06T01:41:05.299Z,77.26
2023-02-06T01:43:39.747Z,77.36
2023-02-06T01:46:13.310Z,77.29
2023-02-06T01:48:47.727Z,77.29
2023-02-06T01:51:22.255Z,77.22
2023-02-06T01:53:57.510Z,77.21
2023-02-06T01:56:30.306Z,77.37
2023-02-06T01:59:05.456Z,77.48
2023-02-06T02:01:39.050Z,77.57
2023-02-06T02:04:12.083Z,77.57
2023-02-06T02:06:43.963Z,77.59
2023-02-06T02:09:14.467Z,78.02
2023-02-06T02:11:44.955Z,77.93
2023-02-06T02:14:18.844Z,78.19
2023-02-06T02:17:08.791Z,78.09
2023-02-06T02:20:37.967Z,78.14
2023-02-06T02:23:31.441Z,77.75
2023-02-06T02:27:00.958Z,78.13
2023-02-06T02:29:57.297Z,78.38
2023-02-06T02:33:18.510Z,78.52
2023-02-06T02:35:57.398Z,78.83
2023-02-06T02:38:46.965Z,78.48
2023-02-06T02:41:22.689Z,78.43
2023-02-06T02:44:01.423Z,78.34
2023-02-06T02:46:37.908Z,78.35
2023-02-06T02:49:15.005Z,78.41
2023-02-06T02:51:50.494Z,78.01
2023-02-06T02:54:21.939Z,77.95
2023-02-06T02:56:52.444Z,77.99
2023-02-06T02:59:28.904Z,77.87
2023-02-06T03:02:05.451Z,77.94
2023-02-06T03:04:43.997Z,78.45
2023-02-06T03:07:29.920Z,78.52
2023-02-06T03:10:09.573Z,78.64
2023-02-06T03:12:48.059Z,78.59
2023-02-06T03:15:27.621Z,78.13
2023-02-06T03:18:04.458Z,78.37
2023-02-06T03:20:36.463Z,79.35
2023-02-06T03:23:11.525Z,80.89
2023-02-06T03:25:45.984Z,81.32
2023-02-06T03:28:23.713Z,81.79
2023-02-06T03:30:57.355Z,82.19
2023-02-06T03:33:33.945Z,82.34
2023-02-06T03:36:05.320Z,81.07
2023-02-06T03:38:38.360Z,79.57
2023-02-06T03:41:09.580Z,78.68
2023-02-06T03:43:40.253Z,78.23
2023-02-06T03:46:13.227Z,78.05
2023-02-06T03:48:48.673Z,78.18
2023-02-06T03:51:22.936Z,78.26
2023-02-06T03:53:59.277Z,78.39
2023-02-06T03:56:37.139Z,78.56
2023-02-06T03:59:07.507Z,78.30
2023-02-06T04:01:38.582Z,78.30
2023-02-06T04:04:09.831Z,78.47
2023-02-06T04:06:40.042Z,78.65
2023-02-06T04:09:12.961Z,78.66
2023-02-06T04:11:43.304Z,78.95
2023-02-06T04:14:13.572Z,78.62
2023-02-06T04:16:43.964Z,78.84
2023-02-06T04:19:14.303Z,78.34
2023-02-06T04:21:44.614Z,78.26
2023-02-06T04:24:17.573Z,78.36
2023-02-06T04:26:47.889Z,78.45
2023-02-06T04:29:18.245Z,78.83
2023-02-06T04:31:48.699Z,78.55
2023-02-06T04:34:18.941Z,78.49
2023-02-06T04:36:49.256Z,77.98
2023-02-06T04:39:22.126Z,78.97
2023-02-06T04:41:52.491Z,79.09
2023-02-06T04:44:22.942Z,80.06
2023-02-06T04:46:53.311Z,80.29
2023-02-06T04:49:23.887Z,79.72
2023-02-06T04:51:54.395Z,78.82
2023-02-06T04:54:27.433Z,78.33
2023-02-06T04:56:57.836Z,78.51
2023-02-06T04:59:28.235Z,78.84
2023-02-06T05:01:58.620Z,78.88
2023-02-06T05:04:29.202Z,79.32
2023-02-06T05:06:59.602Z,79.52
2023-02-06T05:09:32.823Z,79.41
2023-02-06T05:12:03.224Z,79.29
2023-02-06T05:14:33.659Z,78.95
2023-02-06T05:17:03.971Z,78.83
2023-02-06T05:19:34.563Z,78.81
2023-02-06T05:22:04.972Z,79.04
2023-02-06T05:24:37.972Z,78.83
2023-02-06T05:27:08.277Z,78.77
2023-02-06T05:29:38.586Z,79.32
2023-02-06T05:32:09.028Z,79.74
2023-02-06T05:34:39.464Z,79.77
2023-02-06T05:37:09.914Z,79.49
2023-02-06T05:39:42.901Z,79.82
2023-02-06T05:42:13.192Z,80.11
2023-02-06T05:44:43.522Z,80.30
2023-02-06T05:47:13.956Z,80.31
2023-02-06T05:49:44.683Z,80.71
2023-02-06T05:52:15.115Z,80.77
2023-02-06T05:54:48.154Z,81.13
2023-02-06T05:57:18.542Z,81.28
2023-02-06T05:59:48.906Z,81.60
2023-02-06T06:02:19.250Z,81.63
2023-02-06T06:04:49.650Z,81.65
2023-02-06T06:07:22.923Z,82.22
2023-02-06T06:09:55.865Z,82.80
2023-02-06T06:12:26.202Z,83.75
2023-02-06T06:14:56.777Z,84.06
2023-02-06T06:17:27.033Z,84.93
2023-02-06T06:19:57.397Z,86.11
2023-02-06T06:22:27.769Z,86.53
2023-02-06T06:25:00.713Z,88.11
2023-02-06T06:27:30.986Z,88.77
2023-02-06T06:30:01.359Z,88.84
2023-02-06T06:32:31.650Z,88.95
2023-02-06T06:35:02.036Z,89.51
2023-02-06T06:37:32.505Z,89.99
2023-02-06T06:40:05.428Z,89.82
2023-02-06T06:42:35.792Z,89.85
2023-02-06T06:45:06.410Z,89.12
2023-02-06T06:47:36.905Z,89.08
2023-02-06T06:50:08.775Z,88.35
2023-02-06T06:52:39.613Z,88.01
2023-02-06T06:55:12.967Z,87.64
2023-02-06T06:57:43.291Z,87.26
2023-02-06T07:00:16.292Z,86.76
2023-02-06T07:02:47.272Z,86.38
2023-02-06T07:05:17.748Z,86.74
2023-02-06T07:07:48.164Z,86.69
2023-02-06T07:10:21.363Z,86.46
2023-02-06T07:12:53.651Z,85.85
2023-02-06T07:15:24.194Z,85.61
2023-02-06T07:17:54.824Z,85.66
2023-02-06T07:20:25.438Z,84.92
2023-02-06T07:22:55.882Z,84.14
2023-02-06T07:25:28.819Z,83.41
2023-02-06T07:27:59.239Z,83.71
2023-02-06T07:30:29.607Z,83.98
2023-02-06T07:32:59.963Z,83.46
2023-02-06T07:35:30.465Z,83.20
2023-02-06T07:38:00.903Z,82.75
2023-02-06T07:40:44.726Z,82.15
2023-02-06T07:43:15.757Z,82.49
2023-02-06T07:45:46.697Z,82.35
2023-02-06T07:48:17.353Z,82.56
2023-02-06T07:50:47.722Z,82.53
2023-02-06T07:53:18.142Z,82.87
2023-02-06T07:55:51.392Z,82.84
2023-02-06T07:58:21.796Z,82.94
2023-02-06T08:00:52.187Z,82.95
2023-02-06T08:03:22.502Z,82.85
2023-02-06T08:05:52.791Z,82.83
2023-02-06T08:08:23.104Z,83.38
2023-02-06T08:10:55.985Z,84.21
2023-02-06T08:13:26.352Z,84.75
2023-02-06T08:15:56.658Z,85.04
2023-02-06T08:18:27.084Z,85.86
2023-02-06T08:20:57.352Z,86.29
2023-02-06T08:23:28.051Z,86.78
2023-02-06T08:26:09.359Z,87.10
2023-02-06T08:28:42.392Z,87.38
2023-02-06T08:31:14.367Z,87.23
2023-02-06T08:33:45.300Z,86.86
2023-02-06T08:36:17.644Z,86.52
2023-02-06T08:38:48.628Z,87.55
2023-02-06T08:41:24.774Z,87.78
2023-02-06T08:43:58.828Z,88.93
2023-02-06T08:46:32.584Z,90.31
2023-02-06T08:49:05.554Z,91.66
2023-02-06T08:51:37.038Z,92.79
2023-02-06T08:54:11.339Z,93.85
2023-02-06T08:56:44.479Z,94.20
2023-02-06T08:59:17.149Z,94.71
2023-02-06T09:01:49.483Z,96.09
2023-02-06T09:04:20.433Z,95.96
2023-02-06T09:06:52.313Z,95.96
2023-02-06T09:09:23.106Z,95.70
2023-02-06T09:11:59.091Z,94.96
2023-02-06T09:14:29.526Z,95.11
2023-02-06T09:17:00.016Z,94.87
2023-02-06T09:19:30.472Z,94.58
2023-02-06T09:22:01.032Z,94.37
2023-02-06T09:24:32.388Z,94.69
2023-02-06T09:27:05.632Z,95.10
2023-02-06T09:29:36.349Z,95.04
2023-02-06T09:32:07.311Z,94.69
2023-02-06T09:34:38.235Z,94.87
2023-02-06T09:37:09.487Z,94.59
2023-02-06T09:39:39.830Z,95.38
2023-02-06T09:42:19.926Z,95.65
2023-02-06T09:44:54.309Z,95.95
2023-02-06T09:47:30.474Z,96.32
2023-02-06T09:50:07.526Z,96.78
2023-02-06T09:52:55.666Z,97.66
2023-02-06T09:55:35.380Z,98.23
2023-02-06T09:58:25.012Z,98.21
2023-02-06T10:01:02.884Z,97.97
2023-02-06T10:03:53.753Z,97.43
2023-02-06T10:06:27.875Z,97.62
2023-02-06T10:09:05.958Z,98.28
2023-02-06T10:11:46.142Z,98.95
2023-02-06T10:14:25.122Z,98.60
2023-02-06T10:17:01.706Z,98.29
2023-02-06T10:19:44.177Z,98.12
2023-02-06T10:22:21.194Z,98.17
2023-02-06T10:24:59.366Z,97.91
2023-02-06T10:27:29.902Z,97.73
2023-02-06T10:30:04.264Z,97.29
2023-02-06T10:32:48.261Z,96.78
2023-02-06T10:35:37.173Z,96.29
2023-02-06T10:38:40.881Z,95.71
2023-02-06T10:41:24.430Z,95.38
2023-02-06T10:44:00.204Z,95.11
2023-02-06T10:46:44.524Z,94.95
2023-02-06T10:49:25.892Z,95.19
2023-02-06T10:52:00.450Z,94.80
2023-02-06T10:54:38.454Z,94.72
2023-02-06T10:57:19.145Z,94.58
2023-02-06T10:59:54.030Z,94.75
2023-02-06T11:02:30.634Z,94.85
2023-02-06T11:05:07.713Z,94.46
2023-02-06T11:07:44.024Z,94.33
2023-02-06T11:10:20.049Z,93.86
2023-02-06T11:12:55.148Z,93.29
2023-02-06T11:15:32.977Z,93.04
2023-02-06T11:18:10.665Z,92.84
2023-02-06T11:20:45.141Z,92.96
2023-02-06T11:23:21.983Z,93.94
2023-02-06T11:26:09.047Z,95.13
2023-02-06T11:28:43.902Z,95.46
2023-02-06T11:31:14.539Z,94.89
2023-02-06T11:33:52.920Z,94.31
2023-02-06T11:36:31.505Z,94.33
2023-02-06T11:39:04.672Z,94.87
2023-02-06T11:41:36.040Z,94.67
2023-02-06T11:44:07.696Z,94.35
2023-02-06T11:46:39.598Z,94.39
2023-02-06T11:49:29.524Z,93.90
2023-02-06T11:52:04.081Z,93.19
2023-02-06T11:54:37.160Z,93.25
2023-02-06T11:57:13.063Z,92.79
2023-02-06T11:59:56.735Z,93.05
2023-02-06T12:02:32.568Z,92.53
2023-02-06T12:05:15.097Z,91.72
2023-02-06T12:07:50.673Z,91.14
2023-02-06T12:10:24.064Z,91.14
2023-02-06T12:12:59.474Z,91.06
2023-02-06T12:15:46.927Z,91.03
2023-02-06T12:18:22.082Z,91.38
2023-02-06T12:21:00.187Z,91.95
2023-02-06T12:23:39.645Z,91.93
2023-02-06T12:26:15.878Z,91.01
2023-02-06T12:28:57.735Z,90.64
2023-02-06T12:31:37.984Z,90.28
2023-02-06T12:34:18.538Z,90.13
2023-02-06T12:37:00.552Z,89.79
2023-02-06T12:39:35.691Z,89.05
2023-02-06T12:42:29.183Z,88.72
2023-02-06T12:45:04.607Z,88.61
2023-02-06T12:47:43.686Z,88.33
2023-02-06T12:50:26.954Z,87.94
2023-02-06T12:53:05.473Z,88.02
2023-02-06T12:55:40.192Z,87.60
2023-02-06T12:58:28.297Z,86.61
2023-02-06T13:01:31.033Z,85.95
2023-02-06T13:04:06.232Z,85.05
2023-02-06T13:06:47.547Z,84.38
2023-02-06T13:09:28.112Z,85.06
2023-02-06T13:12:11.405Z,84.46
2023-02-06T13:14:49.983Z,84.37
2023-02-06T13:17:23.592Z,84.00
2023-02-06T13:20:04.063Z,83.75
2023-02-06T13:22:49.407Z,83.80
2023-02-06T13:25:52.371Z,83.54
2023-02-06T13:29:02.990Z,83.42
2023-02-06T13:31:36.673Z,83.44
2023-02-06T13:34:17.487Z,83.60
2023-02-06T13:36:59.880Z,82.99
2023-02-06T13:39:36.676Z,82.58
2023-02-06T13:42:42.011Z,83.15
2023-02-06T13:45:23.308Z,83.22
2023-02-06T13:48:35.065Z,82.90
2023-02-06T13:51:37.701Z,82.25
2023-02-06T13:54:54.047Z,82.23
2023-02-06T13:57:39.123Z,81.27
2023-02-06T14:00:18.235Z,81.74
2023-02-06T14:02:52.656Z,81.59
2023-02-06T14:05:29.555Z,81.98
2023-02-06T14:08:14.106Z,81.25
2023-02-06T14:11:30.135Z,81.00
2023-02-06T14:14:37.362Z,81.72
2023-02-06T14:17:22.211Z,82.81
2023-02-06T14:20:02.136Z,82.68
2023-02-06T14:22:53.893Z,83.41
2023-02-06T14:25:47.582Z,83.32
2023-02-06T14:28:28.754Z,83.96
2023-02-06T14:31:15.308Z,84.45
2023-02-06T14:34:11.440Z,84.56
2023-02-06T14:37:06.823Z,84.54
2023-02-06T14:39:44.440Z,84.69
2023-02-06T14:42:23.795Z,84.25
2023-02-06T14:45:04.174Z,84.02
2023-02-06T14:47:42.453Z,84.32
2023-02-06T14:50:23.466Z,84.94
2023-02-06T14:52:57.153Z,85.17
2023-02-06T14:55:38.322Z,85.15
2023-02-06T14:58:21.247Z,85.29
2023-02-06T15:00:51.721Z,85.41
2023-02-06T15:03:27.362Z,85.37
2023-02-06T15:06:06.787Z,85.37
2023-02-06T15:08:38.019Z,85.50
2023-02-06T15:11:10.353Z,85.70
2023-02-06T15:13:40.688Z,85.45
2023-02-06T15:16:12.846Z,85.75
2023-02-06T15:18:45.859Z,85.61
2023-02-06T15:21:19.804Z,85.59
2023-02-06T15:24:07.485Z,86.31
2023-02-06T15:26:46.124Z,86.28
2023-02-06T15:29:23.201Z,86.59
2023-02-06T15:31:58.294Z,86.77
2023-02-06T15:34:32.806Z,86.69
2023-02-06T15:37:03.255Z,86.85
2023-02-06T15:39:34.176Z,86.94
2023-02-06T15:42:04.654Z,87.25
2023-02-06T15:44:39.545Z,87.57
2023-02-06T15:47:17.066Z,87.94
2023-02-06T15:49:54.351Z,87.86
2023-02-06T15:52:43.011Z,87.81
2023-02-06T15:55:30.355Z,88.00
2023-02-06T15:58:04.280Z,87.81
2023-02-06T16:00:38.429Z,87.97
2023-02-06T16:03:20.547Z,87.86
2023-02-06T16:05:54.046Z,88.16
2023-02-06T16:08:28.832Z,87.59
2023-02-06T16:11:04.052Z,87.69
2023-02-06T16:13:35.961Z,87.75
2023-02-06T16:16:25.107Z,88.09
2023-02-06T16:18:58.673Z,88.16
2023-02-06T16:21:35.617Z,88.05
2023-02-06T16:24:19.255Z,88.36
2023-02-06T16:26:52.648Z,88.10
2023-02-06T16:29:30.950Z,87.90
2023-02-06T16:32:04.466Z,87.54
2023-02-06T16:34:41.161Z,87.37
2023-02-06T16:37:18.698Z,87.15
2023-02-06T16:39:49.887Z,87.49
2023-02-06T16:42:23.046Z,87.84
2023-02-06T16:45:01.261Z,87.67
2023-02-06T16:47:31.863Z,87.02
2023-02-06T16:50:02.376Z,86.39
2023-02-06T16:52:37.328Z,86.08
2023-02-06T16:55:08.368Z,86.24
2023-02-06T16:57:45.043Z,85.99
2023-02-06T17:00:22.230Z,85.96
2023-02-06T17:02:54.842Z,85.67
2023-02-06T17:05:28.477Z,85.36
2023-02-06T17:08:01.742Z,86.83
2023-02-06T17:10:32.169Z,85.32
2023-02-06T17:13:02.577Z,84.40
2023-02-06T17:15:32.968Z,83.41
2023-02-06T17:18:03.277Z,82.76
2023-02-06T17:20:37.961Z,82.49
2023-02-06T17:23:12.802Z,81.46
2023-02-06T17:25:45.600Z,81.36
2023-02-06T17:28:18.901Z,81.06
2023-02-06T17:30:51.052Z,80.97
2023-02-06T17:33:21.676Z,81.38
2023-02-06T17:35:52.349Z,81.07
2023-02-06T17:38:25.452Z,81.00
2023-02-06T17:40:57.226Z,81.12
2023-02-06T17:43:28.183Z,81.64
2023-02-06T17:45:58.617Z,81.53
2023-02-06T17:48:29.048Z,81.52
2023-02-06T17:50:59.496Z,81.00
2023-02-06T17:53:32.509Z,80.64
2023-02-06T17:56:08.536Z,80.65
2023-02-06T17:58:38.961Z,80.50
2023-02-06T18:01:14.579Z,80.79
2023-02-06T18:03:47.872Z,81.58
2023-02-06T18:06:18.479Z,83.00
2023-02-06T18:08:52.039Z,83.35
2023-02-06T18:11:25.039Z,83.87
2023-02-06T18:13:55.993Z,83.77
2023-02-06T18:16:28.755Z,84.32
2023-02-06T18:18:59.494Z,84.20
2023-02-06T18:21:31.084Z,84.47
2023-02-06T18:24:04.980Z,84.35
2023-02-06T18:26:35.644Z,84.80
2023-02-06T18:29:08.068Z,84.84
2023-02-06T18:31:39.741Z,84.74
2023-02-06T18:34:11.718Z,85.20
2023-02-06T18:36:45.283Z,85.09
2023-02-06T18:39:18.586Z,85.01
2023-02-06T18:42:01.498Z,85.01
2023-02-06T18:44:35.036Z,85.04
2023-02-06T18:47:05.765Z,84.68
2023-02-06T18:49:37.423Z,84.87
2023-02-06T18:52:09.385Z,84.41
2023-02-06T18:54:42.645Z,84.24
2023-02-06T18:57:13.310Z,84.35
2023-02-06T18:59:44.168Z,85.30
2023-02-06T19:02:14.999Z,85.39
2023-02-06T19:04:45.563Z,85.69
2023-02-06T19:07:16.733Z,86.61
2023-02-06T19:09:49.772Z,86.38
2023-02-06T19:12:20.221Z,86.26
2023-02-06T19:14:50.851Z,86.68
2023-02-06T19:17:21.296Z,86.96
2023-02-06T19:19:51.959Z,86.76
2023-02-06T19:22:22.575Z,86.42
2023-02-06T19:24:57.151Z,86.04
2023-02-06T19:27:28.486Z,85.72
2023-02-06T19:29:59.160Z,85.62
2023-02-06T19:32:29.647Z,85.19
2023-02-06T19:35:00.250Z,85.18
2023-02-06T19:37:30.803Z,84.84
2023-02-06T19:40:04.039Z,84.23
2023-02-06T19:42:34.592Z,84.30
2023-02-06T19:45:06.452Z,84.23
2023-02-06T19:47:37.914Z,83.49
2023-02-06T19:50:09.599Z,83.03
2023-02-06T19:52:39.971Z,82.69
2023-02-06T19:55:13.676Z,81.92
2023-02-06T19:57:43.989Z,82.10
2023-02-06T20:00:16.275Z,81.71
2023-02-06T20:02:46.604Z,81.55
2023-02-06T20:05:18.973Z,81.41
2023-02-06T20:07:49.616Z,81.29
2023-02-06T20:10:23.036Z,81.78
2023-02-06T20:12:53.527Z,82.02
2023-02-06T20:15:24.026Z,82.39
2023-02-06T20:17:54.592Z,83.57
2023-02-06T20:20:25.055Z,83.68
2023-02-06T20:22:55.391Z,83.36
2023-02-06T20:25:28.864Z,83.26
2023-02-06T20:27:59.520Z,82.54
2023-02-06T20:30:30.007Z,81.17
2023-02-06T20:33:00.693Z,80.25
2023-02-06T20:35:31.346Z,80.22
2023-02-06T20:38:02.208Z,79.39
2023-02-06T20:40:35.547Z,79.25
2023-02-06T20:43:06.137Z,78.66
2023-02-06T20:45:37.432Z,79.05
2023-02-06T20:48:07.991Z,78.42
2023-02-06T20:50:38.743Z,78.25
2023-02-06T20:53:09.329Z,78.49
2023-02-06T20:55:47.379Z,80.09
2023-02-06T20:58:17.755Z,81.50
2023-02-06T21:00:49.856Z,81.65
2023-02-06T21:03:20.279Z,82.19
2023-02-06T21:05:59.511Z,83.26
2023-02-06T21:08:30.398Z,83.93
2023-02-06T21:11:03.650Z,84.09
2023-02-06T21:13:34.218Z,84.12
2023-02-06T21:16:04.822Z,83.82
2023-02-06T21:18:36.025Z,82.73
2023-02-06T21:21:11.185Z,81.56
2023-02-06T21:23:43.166Z,81.05
2023-02-06T21:26:17.952Z,80.13
2023-02-06T21:28:49.130Z,79.25
2023-02-06T21:31:23.158Z,78.88
2023-02-06T21:33:55.220Z,78.77
2023-02-06T21:36:25.590Z,79.01
2023-02-06T21:38:55.889Z,78.76
2023-02-06T21:41:29.332Z,79.81
2023-02-06T21:43:59.772Z,80.66
2023-02-06T21:46:31.095Z,81.87
2023-02-06T21:49:01.490Z,81.78
2023-02-06T21:51:31.816Z,80.14
2023-02-06T21:54:02.150Z,79.52
2023-02-06T21:56:36.520Z,78.88
2023-02-06T21:59:07.510Z,77.75
2023-02-06T22:01:40.626Z,77.33
2023-02-06T22:04:12.406Z,77.36
2023-02-06T22:06:43.738Z,77.08
2023-02-06T22:09:20.807Z,76.38
2023-02-06T22:11:54.137Z,75.78
2023-02-06T22:14:24.533Z,75.61
2023-02-06T22:16:54.870Z,75.58
2023-02-06T22:19:25.228Z,75.21
2023-02-06T22:21:55.656Z,74.31
2023-02-06T22:24:26.051Z,74.06
2023-02-06T22:26:59.044Z,74.39
2023-02-06T22:29:30.177Z,74.41
2023-02-06T22:32:04.460Z,74.26
2023-02-06T22:34:35.292Z,74.40
2023-02-06T22:37:05.757Z,73.70
2023-02-06T22:39:36.175Z,73.92
2023-02-06T22:42:09.327Z,73.90
2023-02-06T22:44:39.880Z,73.93
2023-02-06T22:47:10.339Z,73.93
2023-02-06T22:49:40.908Z,74.25
2023-02-06T22:52:31.386Z,74.20
2023-02-06T22:55:03.503Z,74.35
2023-02-06T22:57:37.356Z,73.51
2023-02-06T23:00:12.300Z,73.03
2023-02-06T23:02:42.947Z,72.97
2023-02-06T23:05:13.458Z,73.62
2023-02-06T23:07:43.908Z,74.16
2023-02-06T23:10:14.278Z,74.42
2023-02-06T23:12:47.186Z,74.89
2023-02-06T23:15:17.793Z,74.61
2023-02-06T23:17:49.689Z,75.47
2023-02-06T23:20:20.638Z,76.01
2023-02-06T23:22:51.059Z,76.22
2023-02-06T23:25:21.514Z,75.75
2023-02-06T23:27:54.769Z,75.01
2023-02-06T23:30:25.270Z,74.39
2023-02-06T23:32:55.706Z,74.30
2023-02-06T23:35:26.103Z,74.36
2023-02-06T23:37:56.427Z,74.26
2023-02-06T23:40:26.747Z,74.36
2023-02-06T23:42:59.655Z,74.19
2023-02-06T23:45:30.727Z,73.53
2023-02-06T23:48:01.186Z,73.36
2023-02-06T23:50:31.971Z,73.12
2023-02-06T23:53:02.362Z,72.62
2023-02-06T23:55:33.024Z,72.20
2023-02-06T23:58:06.033Z,71.23
